Terminal Aerodrome Forecast
Issued by NWS

Home | Current Version | Previous Version | Text Only | Print | Product List | Glossary On
Versions: 1 2 3 4 5 6 7 8 9 10 11 12 13 14 15 16 17 18 19 20 21 22 23 24 25 26
000
FTUS41 KBTV 031126
TAFPBG
TAF
KPBG 031126Z 0312/0412 00000KT P6SM SKC
     FM031400 16007KT P6SM FEW060 FEW120
     FM032100 16009G18KT 5SM -SHSN BR SCT025 OVC040
     FM040000 16012G22KT 2SM -SN BR SCT015 OVC030
     FM040500 17011G22KT P6SM -SHSN SCT020 OVC025
     FM041000 22007KT P6SM VCSH SCT025 OVC035 WS020/27040KT=

USA.gov is the U.S. government's official web portal to all federal, state and local government web resources and services.